Time;durP1;ratioP1;P1;durP2;ratioP2;P2;SDS_P1;SDS_P2;PMS_P1;PMS_P2;Temp;Humidity;BMP_temperature;BMP_pressure;BME280_temperature;BME280_humidity;BME280_pressure;Samples;Min_cycle;Max_cycle;Signal;HPM_P1;HPM_P2
2022/06/07 00:00:46;;;;;;;16.50;15.50;;;11.40;99.90;;;;;;5039768;28;20494;-71
2022/06/07 00:03:13;;;;;;;16.40;15.30;;;11.30;99.90;;;;;;5023767;28;20187;-71
2022/06/07 00:05:43;;;;;;;17.40;16.00;;;11.30;99.90;;;;;;5007692;28;20056;-70
2022/06/07 00:08:12;;;;;;;16.98;15.88;;;11.20;99.90;;;;;;5015399;28;20536;-70
2022/06/07 00:10:39;;;;;;;16.25;15.35;;;11.10;99.90;;;;;;5042706;28;20041;-70
2022/06/07 00:13:06;;;;;;;18.63;17.08;;;11.00;99.90;;;;;;5042205;28;20064;-71
2022/06/07 00:15:33;;;;;;;15.77;14.88;;;11.00;99.90;;;;;;5023345;28;20053;-71
2022/06/07 00:18:01;;;;;;;16.35;15.23;;;10.90;99.90;;;;;;5023845;28;20472;-71
2022/06/07 00:20:27;;;;;;;15.55;14.52;;;10.80;99.90;;;;;;5017584;28;20508;-71
2022/06/07 00:22:55;;;;;;;15.30;14.30;;;10.70;99.90;;;;;;5014934;28;20057;-71
2022/06/07 00:25:22;;;;;;;16.25;15.00;;;10.60;99.90;;;;;;5034826;28;20061;-71
2022/06/07 00:27:49;;;;;;;15.85;14.50;;;10.50;99.90;;;;;;5018162;28;20046;-71
2022/06/07 00:30:17;;;;;;;16.58;15.38;;;10.40;99.90;;;;;;4989413;28;20077;-71
2022/06/07 00:32:45;;;;;;;15.73;14.50;;;10.50;99.90;;;;;;5031733;28;20479;-71
2022/06/07 00:35:13;;;;;;;15.75;14.77;;;10.60;99.90;;;;;;5032391;28;20053;-70
2022/06/07 00:37:39;;;;;;;16.00;15.00;;;10.60;99.90;;;;;;5015394;28;20048;-70
2022/06/07 00:40:07;;;;;;;16.25;15.25;;;10.70;99.90;;;;;;5026848;28;20058;-71
2022/06/07 00:42:34;;;;;;;14.93;14.02;;;10.60;99.90;;;;;;5025129;28;20057;-70
2022/06/07 00:45:01;;;;;;;15.52;14.43;;;10.70;99.90;;;;;;5005334;28;20064;-69
2022/06/07 00:47:30;;;;;;;16.10;14.80;;;10.70;99.90;;;;;;4989130;28;20383;-68
2022/06/07 00:50:26;;;;;;;15.27;14.38;;;10.60;99.90;;;;;;5005565;28;20076;-70
2022/06/07 00:52:53;;;;;;;15.70;14.50;;;10.70;99.90;;;;;;5016347;28;20041;-70
2022/06/07 00:55:19;;;;;;;15.48;14.43;;;10.70;99.90;;;;;;5033245;28;20045;-70
2022/06/07 00:57:50;;;;;;;15.48;14.40;;;10.70;99.90;;;;;;5020801;28;20041;-71
2022/06/07 01:00:28;;;;;;;16.10;14.73;;;10.80;99.90;;;;;;5006819;28;20631;-68
2022/06/07 01:02:58;;;;;;;15.25;14.35;;;10.90;99.90;;;;;;5004557;28;20042;-71
2022/06/07 01:05:26;;;;;;;15.98;14.98;;;10.90;99.90;;;;;;5004796;28;20849;-70
2022/06/07 01:10:47;;;;;;;16.90;15.60;;;10.80;99.90;;;;;;5004591;28;20136;-71
2022/06/07 01:13:31;;;;;;;16.63;15.52;;;10.80;99.90;;;;;;5001250;28;20053;-69
2022/06/07 01:16:07;;;;;;;15.27;14.38;;;10.50;99.90;;;;;;5023770;28;20045;-71
2022/06/07 01:18:38;;;;;;;15.48;14.45;;;10.50;99.90;;;;;;5015184;28;20140;-69
2022/06/07 01:21:29;;;;;;;16.35;14.93;;;10.40;99.90;;;;;;5004593;28;20060;-71
2022/06/07 01:23:57;;;;;;;14.48;13.48;;;10.40;99.90;;;;;;5012246;28;20293;-71
2022/06/07 01:26:31;;;;;;;14.40;13.40;;;10.30;99.90;;;;;;5020223;28;20222;-70
2022/06/07 01:29:01;;;;;;;14.80;13.90;;;10.30;99.90;;;;;;5016144;28;20423;-71
2022/06/07 01:31:28;;;;;;;16.15;14.57;;;10.30;99.90;;;;;;5021763;28;20151;-71
2022/06/07 01:33:55;;;;;;;15.80;14.57;;;10.30;99.90;;;;;;5005807;28;20507;-70
2022/06/07 01:36:22;;;;;;;15.50;14.30;;;10.40;99.90;;;;;;5028285;28;20048;-71
2022/06/07 01:41:54;;;;;;;16.20;14.75;;;10.40;99.90;;;;;;5064607;27;20917;-71
2022/06/07 01:44:27;;;;;;;15.55;14.25;;;10.30;99.90;;;;;;5074857;28;20545;-73
2022/06/07 01:46:57;;;;;;;15.02;13.85;;;10.30;99.90;;;;;;5041124;28;20049;-72
2022/06/07 01:49:24;;;;;;;14.77;13.57;;;10.40;99.90;;;;;;5057090;28;20048;-71
2022/06/07 01:51:55;;;;;;;14.60;13.65;;;10.50;99.90;;;;;;5068746;28;20121;-72
2022/06/07 01:54:23;;;;;;;14.88;13.80;;;10.50;99.90;;;;;;5057530;28;20059;-71
2022/06/07 01:56:51;;;;;;;16.52;15.05;;;10.60;99.90;;;;;;5056171;28;20056;-72
2022/06/07 01:59:19;;;;;;;15.60;14.10;;;10.50;99.90;;;;;;5056266;28;20048;-71
2022/06/07 02:01:48;;;;;;;16.85;15.40;;;10.50;99.90;;;;;;5055610;28;20107;-72
2022/06/07 02:04:14;;;;;;;15.18;14.07;;;10.60;99.90;;;;;;5067628;28;20174;-72
2022/06/07 02:06:41;;;;;;;17.00;15.40;;;10.70;99.90;;;;;;5063607;28;20412;-71
2022/06/07 02:09:11;;;;;;;17.25;15.55;;;10.70;99.90;;;;;;5055779;28;20037;-71
2022/06/07 02:11:38;;;;;;;16.20;14.75;;;10.60;99.90;;;;;;5056172;28;20045;-71
2022/06/07 02:14:08;;;;;;;17.08;15.48;;;10.50;99.90;;;;;;5044946;28;20465;-72
2022/06/07 02:16:36;;;;;;;16.52;14.68;;;10.50;99.90;;;;;;5075050;28;20484;-71
2022/06/07 02:19:04;;;;;;;17.27;15.60;;;10.50;99.90;;;;;;5057924;28;20037;-72
2022/06/07 02:21:36;;;;;;;16.45;14.85;;;10.60;99.90;;;;;;5054943;28;20107;-71
2022/06/07 02:24:07;;;;;;;17.20;15.80;;;10.60;99.90;;;;;;5055680;28;20507;-72
2022/06/07 02:26:48;;;;;;;17.65;15.85;;;10.60;99.90;;;;;;5056383;28;20454;-72
2022/06/07 02:29:31;;;;;;;18.23;16.58;;;10.60;99.90;;;;;;5056017;28;20109;-70
2022/06/07 02:32:18;;;;;;;18.50;16.65;;;10.60;99.90;;;;;;5042892;28;20044;-72
2022/06/07 02:34:49;;;;;;;18.08;16.38;;;10.60;99.90;;;;;;5039253;28;20049;-72
2022/06/07 02:37:16;;;;;;;18.17;16.50;;;10.40;99.90;;;;;;5057100;28;20235;-71
2022/06/07 02:39:43;;;;;;;18.38;16.63;;;10.40;99.90;;;;;;5039409;28;20108;-71
2022/06/07 02:42:15;;;;;;;20.35;16.83;;;10.40;99.90;;;;;;5055488;28;20064;-71
2022/06/07 02:44:42;;;;;;;19.73;17.77;;;10.40;99.90;;;;;;5055820;28;20052;-71
2022/06/07 02:47:09;;;;;;;19.30;17.52;;;10.30;99.90;;;;;;5063175;28;20114;-70
2022/06/07 02:49:40;;;;;;;20.83;18.65;;;10.30;99.90;;;;;;5038995;28;20455;-72
2022/06/07 02:52:08;;;;;;;19.42;17.45;;;10.30;99.90;;;;;;5047120;28;20040;-72
2022/06/07 02:54:41;;;;;;;21.55;19.25;;;10.30;99.90;;;;;;5041196;28;20295;-72
2022/06/07 02:57:10;;;;;;;19.88;17.98;;;10.30;99.90;;;;;;5041898;28;20045;-70
2022/06/07 02:59:39;;;;;;;18.73;17.02;;;10.10;99.90;;;;;;5042718;28;20462;-72
2022/06/07 03:02:05;;;;;;;19.35;17.10;;;10.20;99.90;;;;;;5053713;28;20490;-72
2022/06/07 03:04:34;;;;;;;18.63;16.92;;;10.20;99.90;;;;;;5040075;28;20059;-72
2022/06/07 03:07:04;;;;;;;18.95;17.10;;;10.30;99.90;;;;;;5041629;28;20045;-72
2022/06/07 03:09:31;;;;;;;22.27;17.20;;;10.30;99.90;;;;;;5041105;28;20140;-71
2022/06/07 03:12:00;;;;;;;18.58;16.80;;;10.30;99.90;;;;;;5040871;28;20592;-72
2022/06/07 03:14:27;;;;;;;18.15;16.23;;;10.20;99.90;;;;;;5043366;28;20389;-71
2022/06/07 03:16:57;;;;;;;17.63;16.10;;;10.30;99.90;;;;;;5041991;28;20045;-71
2022/06/07 03:19:28;;;;;;;19.25;17.23;;;10.20;99.90;;;;;;5060248;28;20120;-71
2022/06/07 03:21:55;;;;;;;19.58;17.95;;;10.20;99.90;;;;;;5060835;28;20498;-71
2022/06/07 03:24:22;;;;;;;19.80;17.90;;;10.10;99.90;;;;;;5041559;28;20045;-72
2022/06/07 03:26:51;;;;;;;18.63;16.98;;;10.20;99.90;;;;;;5040765;28;20136;-72
2022/06/07 03:29:18;;;;;;;21.05;19.05;;;10.10;99.90;;;;;;5042337;28;20045;-70
2022/06/07 03:31:45;;;;;;;20.38;18.05;;;10.00;99.90;;;;;;5041988;28;20538;-71
2022/06/07 03:34:13;;;;;;;20.17;18.13;;;9.90;99.90;;;;;;5019200;28;20040;-70
2022/06/07 03:36:41;;;;;;;20.60;18.50;;;10.00;99.90;;;;;;5031172;28;20052;-70
2022/06/07 03:39:09;;;;;;;20.52;17.85;;;10.00;99.90;;;;;;5041738;28;20227;-72
2022/06/07 03:41:41;;;;;;;19.95;17.92;;;9.90;99.90;;;;;;5040871;28;20053;-72
2022/06/07 03:44:13;;;;;;;20.25;18.30;;;10.00;99.90;;;;;;5041715;28;20400;-71
2022/06/07 03:46:46;;;;;;;19.15;17.42;;;10.00;99.90;;;;;;5060975;28;20690;-71
2022/06/07 03:49:16;;;;;;;18.50;16.70;;;10.00;99.90;;;;;;5059684;28;20063;-72
2022/06/07 03:51:43;;;;;;;19.52;17.50;;;10.00;99.90;;;;;;5059038;28;20055;-71
2022/06/07 03:54:10;;;;;;;18.60;16.98;;;10.10;99.90;;;;;;5042924;28;20048;-71
2022/06/07 03:56:39;;;;;;;18.95;17.17;;;10.10;99.90;;;;;;5039572;28;20818;-72
2022/06/07 03:59:07;;;;;;;19.98;18.10;;;10.20;99.90;;;;;;5021092;28;20045;-72
2022/06/07 04:01:34;;;;;;;19.27;17.52;;;10.10;99.90;;;;;;5042438;28;20243;-70
2022/06/07 04:04:05;;;;;;;21.15;18.98;;;10.20;99.90;;;;;;5035824;28;20072;-70
2022/06/07 04:06:38;;;;;;;20.40;18.50;;;10.20;99.90;;;;;;5031057;28;20041;-71
2022/06/07 04:09:15;;;;;;;20.10;18.08;;;10.20;99.90;;;;;;5042025;28;20230;-72
2022/06/07 04:11:44;;;;;;;19.73;17.80;;;10.20;99.90;;;;;;5039425;28;20064;-69
2022/06/07 04:14:12;;;;;;;18.92;17.27;;;10.20;99.90;;;;;;5040632;28;20494;-72
2022/06/07 04:16:40;;;;;;;17.73;16.10;;;10.20;99.90;;;;;;5034497;28;20140;-72
2022/06/07 04:19:12;;;;;;;17.67;15.95;;;10.30;99.90;;;;;;5019894;28;20051;-71
2022/06/07 04:21:39;;;;;;;17.02;15.48;;;10.40;99.90;;;;;;5037953;28;20052;-71
2022/06/07 04:24:15;;;;;;;17.60;15.60;;;10.50;99.90;;;;;;5022067;28;20393;-71
2022/06/07 04:26:42;;;;;;;16.65;14.98;;;10.60;99.90;;;;;;5037893;28;20519;-72
2022/06/07 04:29:09;;;;;;;17.60;15.95;;;10.80;99.90;;;;;;5039565;28;20041;-70
2022/06/07 04:31:38;;;;;;;15.00;13.95;;;11.10;99.90;;;;;;5035161;28;20054;-72
2022/06/07 04:34:09;;;;;;;18.40;16.88;;;11.50;99.90;;;;;;5035002;28;20432;-69
2022/06/07 04:36:38;;;;;;;19.88;18.52;;;11.90;99.90;;;;;;5035997;28;20059;-72
2022/06/07 04:39:08;;;;;;;21.67;20.38;;;12.20;99.90;;;;;;5023967;28;20125;-73
2022/06/07 04:41:40;;;;;;;21.38;20.08;;;12.60;99.90;;;;;;5037836;28;20071;-70
2022/06/07 04:44:10;;;;;;;22.77;21.27;;;12.90;99.90;;;;;;5043244;28;20044;-70
2022/06/07 04:46:37;;;;;;;23.60;22.00;;;13.20;99.90;;;;;;5026899;28;20052;-71
2022/06/07 04:49:07;;;;;;;22.30;21.00;;;13.50;99.90;;;;;;5039707;28;20067;-72
2022/06/07 04:51:37;;;;;;;22.65;21.23;;;13.70;99.90;;;;;;5052627;28;20483;-72
2022/06/07 04:54:12;;;;;;;23.50;22.08;;;14.00;99.90;;;;;;5039971;28;20056;-70
2022/06/07 04:56:43;;;;;;;23.73;22.02;;;14.10;99.90;;;;;;5019448;28;20427;-70
2022/06/07 04:59:12;;;;;;;23.15;21.70;;;14.20;99.90;;;;;;5039035;28;20238;-69
2022/06/07 05:01:45;;;;;;;25.73;23.52;;;14.30;99.90;;;;;;5037906;28;20422;-71
2022/06/07 05:04:20;;;;;;;23.33;21.73;;;14.50;99.90;;;;;;5024634;28;20270;-70
2022/06/07 05:06:48;;;;;;;23.13;21.58;;;14.50;99.90;;;;;;5038437;28;20045;-70
2022/06/07 05:09:22;;;;;;;23.92;22.42;;;14.50;99.90;;;;;;5038260;28;20040;-71
2022/06/07 05:11:54;;;;;;;24.33;22.10;;;14.60;99.90;;;;;;5050853;28;20119;-71
2022/06/07 05:14:23;;;;;;;23.63;21.85;;;14.70;99.90;;;;;;5058725;28;20044;-71
2022/06/07 05:16:51;;;;;;;23.23;21.92;;;14.80;99.90;;;;;;5058727;28;20054;-71
2022/06/07 05:19:23;;;;;;;23.08;21.45;;;14.90;99.90;;;;;;5040123;28;20317;-70
2022/06/07 05:22:01;;;;;;;22.95;21.33;;;14.90;99.90;;;;;;5039499;28;20075;-70
2022/06/07 05:24:31;;;;;;;23.50;21.85;;;15.10;99.90;;;;;;5037433;28;20103;-69
2022/06/07 05:27:01;;;;;;;23.67;22.30;;;15.20;99.90;;;;;;5037176;28;20037;-72
2022/06/07 05:29:44;;;;;;;23.85;22.55;;;15.30;99.90;;;;;;5041376;28;20053;-70
2022/06/07 05:32:13;;;;;;;24.30;22.73;;;15.30;99.90;;;;;;5048130;28;20041;-71
2022/06/07 05:34:45;;;;;;;23.30;22.00;;;15.30;99.90;;;;;;5036683;28;20053;-71
2022/06/07 05:37:17;;;;;;;24.23;22.48;;;15.40;99.90;;;;;;5059455;28;20033;-71
2022/06/07 05:39:45;;;;;;;23.15;21.70;;;15.40;99.90;;;;;;5049363;28;20123;-71
2022/06/07 05:42:14;;;;;;;23.33;21.58;;;15.50;99.90;;;;;;5056016;28;20053;-71
2022/06/07 05:44:42;;;;;;;22.60;21.40;;;15.60;99.90;;;;;;5041054;28;20045;-69
2022/06/07 05:47:09;;;;;;;23.73;21.88;;;15.70;99.90;;;;;;5021398;28;20053;-69
2022/06/07 05:49:43;;;;;;;21.75;20.67;;;15.70;99.90;;;;;;5043349;28;20079;-71
2022/06/07 05:52:15;;;;;;;22.35;20.90;;;15.90;99.90;;;;;;5039890;28;20079;-71
2022/06/07 05:54:44;;;;;;;21.88;20.75;;;16.10;99.90;;;;;;5024875;28;20495;-69
2022/06/07 05:57:12;;;;;;;22.00;20.60;;;16.30;99.90;;;;;;5038328;28;20045;-71
2022/06/07 05:59:41;;;;;;;23.60;21.75;;;16.20;99.90;;;;;;5047357;28;20056;-70
2022/06/07 06:02:10;;;;;;;23.13;21.75;;;16.30;99.90;;;;;;5038225;28;20041;-69
2022/06/07 06:04:39;;;;;;;23.70;22.00;;;16.40;99.90;;;;;;5030458;28;20124;-71
2022/06/07 06:07:08;;;;;;;22.75;21.48;;;16.30;99.90;;;;;;5041213;28;20140;-70
2022/06/07 06:12:28;;;;;;;22.63;21.42;;;16.40;99.90;;;;;;5041473;28;20139;-69
2022/06/07 06:15:17;;;;;;;21.38;20.17;;;16.50;99.90;;;;;;5018196;28;20061;-70
2022/06/07 06:17:44;;;;;;;21.23;20.08;;;16.70;99.90;;;;;;5025642;28;20574;-70
2022/06/07 06:20:19;;;;;;;21.05;19.83;;;16.80;99.90;;;;;;5038570;28;20586;-72
2022/06/07 06:22:50;;;;;;;21.77;20.58;;;16.90;99.90;;;;;;5036789;28;20132;-73
2022/06/07 06:25:17;;;;;;;21.52;20.13;;;16.90;99.90;;;;;;5036255;28;20164;-71
2022/06/07 06:27:46;;;;;;;20.90;19.58;;;17.00;99.90;;;;;;5039169;28;20044;-72
2022/06/07 06:30:13;;;;;;;20.92;19.67;;;17.00;99.90;;;;;;5041060;28;20037;-68
2022/06/07 06:32:51;;;;;;;20.45;19.35;;;17.00;99.90;;;;;;5041777;28;20056;-70
2022/06/07 06:35:20;;;;;;;20.75;19.67;;;17.10;99.90;;;;;;5041629;28;20061;-70
2022/06/07 06:37:47;;;;;;;21.42;20.08;;;17.10;99.90;;;;;;5049580;28;20482;-69
2022/06/07 06:40:16;;;;;;;20.70;19.60;;;17.00;99.90;;;;;;5037896;28;20459;-71
2022/06/07 06:42:53;;;;;;;20.92;19.73;;;17.10;99.90;;;;;;5041981;28;20647;-68
2022/06/07 06:46:03;;;;;;;21.35;20.20;;;17.20;99.90;;;;;;5021724;28;20060;-69
2022/06/07 06:48:31;;;;;;;20.85;19.77;;;17.50;99.90;;;;;;5005988;28;20650;-71
2022/06/07 06:51:04;;;;;;;21.38;20.08;;;17.60;99.90;;;;;;5031353;28;20418;-70
2022/06/07 06:53:34;;;;;;;21.02;19.92;;;17.40;99.90;;;;;;5060182;28;20049;-70
2022/06/07 06:56:11;;;;;;;21.05;19.75;;;17.50;99.90;;;;;;5041999;28;20648;-70
2022/06/07 06:58:42;;;;;;;20.98;19.88;;;17.70;99.90;;;;;;5026241;28;20140;-70
2022/06/07 07:01:17;;;;;;;21.13;19.83;;;17.70;99.90;;;;;;5025900;28;20044;-70
2022/06/07 07:03:44;;;;;;;21.75;20.23;;;17.90;99.90;;;;;;5042489;28;20049;-69
2022/06/07 07:06:18;;;;;;;20.80;19.60;;;17.90;99.90;;;;;;5026057;28;20047;-70
2022/06/07 07:08:48;;;;;;;21.45;20.35;;;17.90;99.90;;;;;;5040618;28;20148;-69
2022/06/07 07:11:32;;;;;;;21.05;19.95;;;17.90;99.90;;;;;;5041669;28;20041;-70
2022/06/07 07:14:02;;;;;;;20.50;19.40;;;17.80;99.90;;;;;;5040533;28;20068;-71
2022/06/07 07:16:32;;;;;;;20.67;19.27;;;17.90;99.90;;;;;;5041818;28;20053;-70
2022/06/07 07:19:00;;;;;;;20.20;19.10;;;18.10;99.90;;;;;;5059430;28;20049;-75
2022/06/07 07:21:35;;;;;;;19.85;18.52;;;18.40;99.90;;;;;;5025172;28;20152;-73
2022/06/07 07:24:11;;;;;;;19.92;18.77;;;18.60;99.90;;;;;;5037782;28;20041;-73
2022/06/07 07:26:43;;;;;;;19.13;17.95;;;18.60;99.90;;;;;;5027542;28;20128;-73
2022/06/07 07:29:13;;;;;;;20.17;19.17;;;18.50;99.90;;;;;;5025107;28;20479;-72
2022/06/07 07:31:40;;;;;;;20.45;19.27;;;18.40;99.90;;;;;;5025004;28;20074;-74
2022/06/07 07:34:11;;;;;;;19.45;18.35;;;18.60;99.90;;;;;;5043331;28;20531;-72
2022/06/07 07:36:43;;;;;;;21.10;20.00;;;18.60;99.90;;;;;;5042286;28;20106;-73
2022/06/07 07:39:13;;;;;;;36.20;21.73;;;18.40;99.90;;;;;;5042162;28;20523;-72
2022/06/07 07:41:41;;;;;;;19.25;18.25;;;18.60;99.90;;;;;;5023831;28;20045;-74
2022/06/07 07:44:12;;;;;;;19.00;17.70;;;18.50;99.90;;;;;;5040767;28;20049;-73
2022/06/07 07:46:43;;;;;;;18.77;17.60;;;18.10;99.90;;;;;;5042122;28;20322;-74
2022/06/07 07:49:13;;;;;;;19.02;17.85;;;17.90;99.90;;;;;;5042371;28;20570;-74
2022/06/07 07:51:44;;;;;;;19.83;18.67;;;17.70;99.90;;;;;;5006640;28;20507;-74
2022/06/07 07:54:14;;;;;;;18.75;17.63;;;17.60;99.90;;;;;;5061007;22;20480;-71
2022/06/07 07:56:42;;;;;;;19.27;18.08;;;17.70;99.90;;;;;;5000238;28;20056;-74
2022/06/07 07:59:11;;;;;;;20.90;19.70;;;17.70;99.90;;;;;;4992879;28;20069;-71
2022/06/07 08:01:39;;;;;;;20.38;19.17;;;17.80;99.90;;;;;;5002290;28;20046;-71
2022/06/07 08:04:07;;;;;;;20.75;19.35;;;18.30;99.90;;;;;;5019013;28;20103;-72
2022/06/07 08:06:40;;;;;;;20.42;19.38;;;18.70;99.90;;;;;;4998072;28;20049;-71
2022/06/07 08:09:08;;;;;;;20.95;19.52;;;19.00;99.90;;;;;;4996591;28;20046;-72
2022/06/07 08:11:37;;;;;;;21.25;20.15;;;19.20;99.90;;;;;;5001701;28;20042;-71
2022/06/07 08:14:06;;;;;;;21.27;19.90;;;19.30;99.90;;;;;;4985428;28;20054;-72
2022/06/07 08:16:33;;;;;;;20.63;19.63;;;19.50;99.90;;;;;;4983684;28;20544;-72
2022/06/07 08:19:08;;;;;;;22.10;20.73;;;19.50;99.90;;;;;;4984387;28;20733;-72
2022/06/07 08:21:36;;;;;;;19.08;18.08;;;19.40;99.90;;;;;;4981764;28;20524;-72
2022/06/07 08:24:04;;;;;;;19.90;18.70;;;19.50;99.90;;;;;;4991847;28;20074;-72
2022/06/07 08:26:31;;;;;;;21.45;20.30;;;19.20;99.90;;;;;;4999229;28;20041;-71
2022/06/07 08:28:58;;;;;;;21.77;20.65;;;18.90;99.90;;;;;;4995967;28;20053;-71
2022/06/07 08:31:27;;;;;;;19.00;17.45;;;19.20;99.90;;;;;;4996965;28;20124;-72
2022/06/07 08:39:26;;;;;;;21.23;19.10;;;19.60;99.90;;;;;;4979375;28;20062;-72
2022/06/07 08:42:00;;;;;;;20.35;19.13;;;19.80;99.90;;;;;;4964681;28;20051;-72
2022/06/07 08:44:42;;;;;;;20.02;18.73;;;19.60;99.90;;;;;;4962880;28;20148;-75
2022/06/07 08:47:38;;;;;;;20.30;19.10;;;19.40;99.90;;;;;;4982917;28;20728;-73
2022/06/07 08:50:22;;;;;;;21.20;19.52;;;19.20;99.90;;;;;;4982415;28;20046;-73
2022/06/07 08:52:56;;;;;;;20.20;18.98;;;19.30;99.90;;;;;;4985036;28;20062;-72
2022/06/07 08:55:32;;;;;;;20.25;19.05;;;19.40;99.90;;;;;;4992915;28;20277;-72
2022/06/07 08:58:11;;;;;;;20.45;19.20;;;19.40;99.90;;;;;;4997076;28;20078;-73
2022/06/07 09:00:40;;;;;;;19.45;18.38;;;19.20;99.90;;;;;;4984991;28;20717;-73
2022/06/07 09:03:25;;;;;;;22.52;21.23;;;19.00;99.90;;;;;;4965865;28;20057;-73
2022/06/07 09:05:58;;;;;;;22.52;21.33;;;18.90;99.90;;;;;;4987936;28;20432;-73
2022/06/07 09:08:42;;;;;;;22.92;21.48;;;19.20;99.90;;;;;;4992229;28;20049;-73
2022/06/07 09:14:05;;;;;;;22.60;21.50;;;19.90;99.90;;;;;;4977690;28;20054;-72
2022/06/07 09:16:42;;;;;;;22.10;20.75;;;20.20;99.90;;;;;;4963849;28;20847;-72
2022/06/07 09:19:19;;;;;;;22.75;21.60;;;20.10;99.90;;;;;;4962815;28;20050;-73
2022/06/07 09:21:46;;;;;;;22.58;21.38;;;20.30;99.90;;;;;;4981662;28;20074;-72
2022/06/07 09:24:20;;;;;;;23.75;22.25;;;20.30;99.90;;;;;;4982893;28;20085;-73
2022/06/07 09:26:47;;;;;;;22.42;21.23;;;20.30;99.90;;;;;;4983974;28;20141;-72
2022/06/07 09:29:19;;;;;;;22.80;21.50;;;20.80;99.90;;;;;;4993691;28;20115;-74
2022/06/07 09:31:48;;;;;;;23.23;21.85;;;21.00;99.90;;;;;;4979480;28;20107;-72
2022/06/07 09:34:25;;;;;;;22.77;21.38;;;20.90;99.90;;;;;;4981594;28;20054;-73
2022/06/07 09:37:14;;;;;;;22.05;20.95;;;20.80;99.90;;;;;;4986163;28;20600;-74
2022/06/07 09:39:43;;;;;;;23.23;21.90;;;20.60;99.90;;;;;;4982253;28;20127;-71
2022/06/07 09:42:26;;;;;;;23.65;22.25;;;20.60;99.90;;;;;;4991626;28;20169;-72
2022/06/07 09:45:14;;;;;;;23.92;22.45;;;21.10;99.90;;;;;;4981389;28;20171;-72
2022/06/07 09:47:40;;;;;;;41.55;24.10;;;21.80;99.90;;;;;;4983365;28;20073;-73
2022/06/07 09:50:29;;;;;;;23.42;22.23;;;21.90;99.90;;;;;;4982075;28;20113;-73
2022/06/07 09:52:58;;;;;;;24.58;22.83;;;21.60;99.90;;;;;;4988149;28;20049;-73
2022/06/07 09:55:39;;;;;;;21.75;20.42;;;21.30;99.90;;;;;;5002118;28;20050;-73
2022/06/07 09:58:41;;;;;;;23.20;22.00;;;21.60;99.90;;;;;;4993548;28;20073;-72
2022/06/07 10:01:32;;;;;;;23.23;21.70;;;21.10;99.90;;;;;;4979453;28;20158;-73
2022/06/07 10:04:21;;;;;;;22.75;21.40;;;21.30;99.90;;;;;;4986546;28;20108;-74
2022/06/07 10:06:55;;;;;;;23.05;21.75;;;21.60;99.90;;;;;;4975399;28;20136;-73
2022/06/07 10:09:34;;;;;;;23.05;21.73;;;22.00;99.90;;;;;;4988820;28;20211;-73
2022/06/07 10:12:04;;;;;;;23.23;21.92;;;22.10;99.90;;;;;;4984017;28;20069;-74
2022/06/07 10:15:17;;;;;;;22.30;21.13;;;22.10;99.90;;;;;;4986502;28;20139;-73
2022/06/07 10:18:07;;;;;;;22.52;21.23;;;21.70;99.90;;;;;;4986500;28;20141;-73
2022/06/07 10:21:02;;;;;;;22.65;21.45;;;21.40;99.90;;;;;;4991816;28;20085;-73
2022/06/07 10:23:35;;;;;;;23.67;22.15;;;21.40;99.90;;;;;;5001397;28;20045;-73
2022/06/07 10:26:39;;;;;;;24.05;22.42;;;21.60;99.90;;;;;;4987752;28;20097;-73
2022/06/07 10:29:23;;;;;;;23.60;22.13;;;21.60;99.90;;;;;;4990972;28;20101;-72
2022/06/07 10:32:11;;;;;;;23.92;22.30;;;21.30;99.90;;;;;;4984131;28;20097;-73
2022/06/07 10:34:45;;;;;;;20.52;19.38;;;21.00;99.90;;;;;;4984452;28;20085;-72
2022/06/07 10:37:26;;;;;;;21.13;20.05;;;21.00;99.90;;;;;;4990549;28;20049;-73
2022/06/07 10:40:15;;;;;;;20.92;19.83;;;20.80;99.90;;;;;;4989330;28;20050;-73
2022/06/07 10:43:05;;;;;;;27.23;25.42;;;20.10;99.90;;;;;;4985655;28;20092;-73
2022/06/07 10:45:38;;;;;;;21.05;19.75;;;19.70;99.90;;;;;;4985420;28;20050;-73
2022/06/07 10:48:27;;;;;;;24.08;22.67;;;20.00;99.90;;;;;;4986669;28;20081;-72
2022/06/07 10:51:06;;;;;;;24.65;23.23;;;20.40;99.90;;;;;;4990990;28;20039;-72
2022/06/07 10:53:33;;;;;;;21.27;20.00;;;20.70;99.90;;;;;;4991194;28;20456;-72
2022/06/07 10:56:26;;;;;;;21.88;20.45;;;20.90;99.90;;;;;;4985913;28;20536;-72
2022/06/07 10:58:55;;;;;;;20.02;19.02;;;20.60;99.90;;;;;;4996473;28;20046;-73
2022/06/07 11:01:41;;;;;;;20.90;19.55;;;20.50;99.90;;;;;;5003411;28;20574;-73
2022/06/07 11:10:14;;;;;;;20.95;19.85;;;20.40;99.90;;;;;;4983177;28;20057;-73
2022/06/07 11:13:02;;;;;;;21.35;20.20;;;20.20;99.90;;;;;;4984673;28;20058;-73
2022/06/07 11:15:42;;;;;;;20.35;19.13;;;20.20;99.90;;;;;;4984591;28;20054;-72
2022/06/07 11:18:20;;;;;;;21.08;19.75;;;19.70;99.90;;;;;;4985529;28;20086;-73
2022/06/07 11:21:03;;;;;;;21.25;19.90;;;19.40;99.90;;;;;;4991927;28;20052;-72
2022/06/07 11:23:55;;;;;;;20.98;19.58;;;19.40;99.90;;;;;;4999569;28;20093;-73
2022/06/07 11:26:22;;;;;;;21.48;19.95;;;19.20;99.90;;;;;;4964612;28;20050;-73
2022/06/07 11:28:53;;;;;;;20.88;19.55;;;19.40;99.90;;;;;;4994057;28;20042;-73
2022/06/07 11:31:23;;;;;;;20.83;19.60;;;19.30;99.90;;;;;;4984041;28;20583;-72
2022/06/07 11:33:53;;;;;;;21.58;19.73;;;19.40;99.90;;;;;;4984452;28;20049;-73
2022/06/07 11:36:20;;;;;;;20.45;19.25;;;19.80;99.90;;;;;;4985150;28;20081;-74
2022/06/07 11:38:58;;;;;;;21.70;20.10;;;19.80;99.90;;;;;;4988175;28;20078;-74
2022/06/07 11:41:36;;;;;;;23.58;22.17;;;19.50;99.90;;;;;;4960929;28;20090;-73
2022/06/07 11:44:12;;;;;;;22.45;20.85;;;19.40;99.90;;;;;;4965347;28;20058;-73
2022/06/07 11:46:49;;;;;;;25.88;24.10;;;19.40;99.90;;;;;;4975731;28;20042;-75
2022/06/07 11:49:24;;;;;;;25.02;23.42;;;19.30;99.90;;;;;;4986011;28;20654;-78
2022/06/07 11:52:11;;;;;;;25.23;23.50;;;19.60;99.90;;;;;;4999086;28;20341;-78
2022/06/07 11:54:53;;;;;;;24.83;23.25;;;20.10;99.90;;;;;;4992310;28;20047;-78
2022/06/07 11:57:56;;;;;;;20.95;19.75;;;20.70;99.90;;;;;;4990527;28;20065;-78
2022/06/07 12:00:23;;;;;;;21.02;19.65;;;21.20;99.90;;;;;;4980191;28;20444;-78
2022/06/07 12:03:02;;;;;;;21.42;19.90;;;21.10;99.90;;;;;;4974218;28;20078;-78
2022/06/07 12:05:37;;;;;;;21.33;20.13;;;20.70;99.90;;;;;;4988325;28;20101;-77
2022/06/07 12:08:47;;;;;;;25.70;24.13;;;20.30;99.90;;;;;;4992339;28;20058;-79
2022/06/07 12:11:22;;;;;;;22.85;21.20;;;20.40;99.90;;;;;;4976760;28;20113;-78
2022/06/07 12:14:20;;;;;;;25.75;24.02;;;20.70;99.90;;;;;;5001983;28;20050;-78
2022/06/07 12:16:59;;;;;;;20.73;19.52;;;20.80;99.90;;;;;;4978296;28;20057;-77
2022/06/07 12:19:29;;;;;;;21.85;20.00;;;20.70;99.90;;;;;;4984214;28;20121;-78
2022/06/07 12:22:04;;;;;;;22.88;21.17;;;20.40;99.90;;;;;;4990369;28;20153;-77
2022/06/07 12:24:38;;;;;;;21.58;20.27;;;20.40;99.90;;;;;;4983858;28;20038;-77
2022/06/07 12:27:23;;;;;;;23.93;22.47;;;20.60;99.90;;;;;;4986672;28;20099;-77
2022/06/07 12:29:53;;;;;;;22.60;21.40;;;20.80;99.90;;;;;;4997091;28;20110;-78
2022/06/07 12:32:27;;;;;;;21.33;19.92;;;21.30;99.90;;;;;;5003765;28;20060;-78
2022/06/07 12:35:04;;;;;;;21.80;20.50;;;21.70;99.90;;;;;;4992330;28;20108;-77
2022/06/07 12:37:32;;;;;;;20.80;19.35;;;21.90;99.90;;;;;;4986523;28;20045;-79
2022/06/07 12:39:58;;;;;;;22.77;21.48;;;21.80;99.90;;;;;;4987040;28;20257;-78
2022/06/07 12:42:29;;;;;;;21.77;20.67;;;21.70;99.90;;;;;;4982813;28;20046;-79
2022/06/07 12:45:17;;;;;;;20.95;19.63;;;21.60;99.90;;;;;;4982289;28;20093;-77
2022/06/07 12:47:46;;;;;;;21.38;19.98;;;21.40;99.90;;;;;;4983165;28;20058;-78
2022/06/07 12:50:24;;;;;;;21.40;19.95;;;20.90;99.90;;;;;;4989599;28;20053;-78
2022/06/07 12:52:53;;;;;;;22.85;21.38;;;20.70;99.90;;;;;;4991646;28;20120;-78
2022/06/07 12:55:24;;;;;;;21.48;20.08;;;20.40;99.90;;;;;;4982183;28;20108;-78
2022/06/07 12:57:57;;;;;;;21.98;20.48;;;20.40;99.90;;;;;;4987109;28;20045;-79
2022/06/07 13:00:27;;;;;;;25.80;24.10;;;20.60;99.90;;;;;;4999590;28;20058;-78
2022/06/07 13:02:58;;;;;;;21.52;20.17;;;20.90;99.90;;;;;;5002669;28;20665;-78
2022/06/07 13:05:27;;;;;;;23.77;22.25;;;21.50;99.90;;;;;;5001114;28;20072;-78
2022/06/07 13:07:56;;;;;;;21.67;20.20;;;21.70;99.90;;;;;;4989739;28;20053;-78
2022/06/07 13:10:29;;;;;;;22.85;21.35;;;21.80;99.90;;;;;;4968955;28;20126;-78
2022/06/07 13:12:59;;;;;;;22.80;21.40;;;21.90;99.90;;;;;;4981891;28;20054;-79
2022/06/07 13:15:32;;;;;;;22.10;20.83;;;21.90;99.90;;;;;;4982648;28;20046;-78
2022/06/07 13:18:22;;;;;;;21.80;20.58;;;21.90;99.90;;;;;;4984659;28;20050;-79
2022/06/07 13:21:02;;;;;;;23.05;21.67;;;21.70;99.90;;;;;;4980833;28;20574;-78